sensor_id;sensor_type;location;lat;lon;timestamp;P1;durP1;ratioP1;P2;durP2;ratioP2
18789;SDS011;9523;42.650;23.386;2024-03-23T00:54:43;5.87;;;3.00;;
18789;SDS011;9523;42.650;23.386;2024-03-23T00:57:10;5.73;;;2.90;;
18789;SDS011;9523;42.650;23.386;2024-03-23T00:59:36;4.20;;;2.63;;
18789;SDS011;9523;42.650;23.386;2024-03-23T01:02:03;5.00;;;2.63;;
18789;SDS011;9523;42.650;23.386;2024-03-23T01:04:29;4.63;;;2.40;;
18789;SDS011;9523;42.650;23.386;2024-03-23T01:06:56;4.83;;;2.60;;
18789;SDS011;9523;42.650;23.386;2024-03-23T01:09:23;6.17;;;3.10;;
18789;SDS011;9523;42.650;23.386;2024-03-23T01:11:50;4.47;;;2.73;;
18789;SDS011;9523;42.650;23.386;2024-03-23T01:14:16;8.63;;;2.93;;
18789;SDS011;9523;42.650;23.386;2024-03-23T01:16:43;6.40;;;3.47;;
18789;SDS011;9523;42.650;23.386;2024-03-23T01:19:09;4.60;;;3.30;;
18789;SDS011;9523;42.650;23.386;2024-03-23T01:21:36;9.33;;;3.10;;
18789;SDS011;9523;42.650;23.386;2024-03-23T01:24:02;4.60;;;2.90;;
18789;SDS011;9523;42.650;23.386;2024-03-23T01:26:31;3.90;;;2.90;;
18789;SDS011;9523;42.650;23.386;2024-03-23T01:28:57;4.17;;;2.63;;
18789;SDS011;9523;42.650;23.386;2024-03-23T01:31:24;5.03;;;2.80;;
18789;SDS011;9523;42.650;23.386;2024-03-23T01:33:50;7.93;;;3.30;;
18789;SDS011;9523;42.650;23.386;2024-03-23T01:36:17;5.00;;;3.00;;
18789;SDS011;9523;42.650;23.386;2024-03-23T01:38:43;7.13;;;3.13;;
18789;SDS011;9523;42.650;23.386;2024-03-23T01:41:10;6.77;;;3.00;;
18789;SDS011;9523;42.650;23.386;2024-03-23T01:43:38;4.07;;;2.43;;
18789;SDS011;9523;42.650;23.386;2024-03-23T01:46:06;5.37;;;2.50;;
18789;SDS011;9523;42.650;23.386;2024-03-23T01:48:32;11.33;;;3.10;;
18789;SDS011;9523;42.650;23.386;2024-03-23T01:50:59;4.23;;;2.53;;
18789;SDS011;9523;42.650;23.386;2024-03-23T01:53:29;4.37;;;2.73;;
18789;SDS011;9523;42.650;23.386;2024-03-23T01:55:57;5.97;;;2.83;;
18789;SDS011;9523;42.650;23.386;2024-03-23T01:58:23;6.93;;;3.40;;
18789;SDS011;9523;42.650;23.386;2024-03-23T02:00:52;6.83;;;2.67;;
18789;SDS011;9523;42.650;23.386;2024-03-23T02:03:24;5.37;;;3.43;;
18789;SDS011;9523;42.650;23.386;2024-03-23T02:05:51;6.33;;;3.23;;
18789;SDS011;9523;42.650;23.386;2024-03-23T02:08:18;4.67;;;3.10;;
18789;SDS011;9523;42.650;23.386;2024-03-23T02:10:47;6.33;;;2.53;;
18789;SDS011;9523;42.650;23.386;2024-03-23T02:13:14;4.87;;;3.07;;
18789;SDS011;9523;42.650;23.386;2024-03-23T02:15:41;5.80;;;2.73;;
18789;SDS011;9523;42.650;23.386;2024-03-23T02:18:09;6.50;;;3.17;;
18789;SDS011;9523;42.650;23.386;2024-03-23T02:20:36;5.20;;;3.07;;
18789;SDS011;9523;42.650;23.386;2024-03-23T02:23:04;3.93;;;2.50;;
18789;SDS011;9523;42.650;23.386;2024-03-23T02:25:32;5.77;;;2.73;;
18789;SDS011;9523;42.650;23.386;2024-03-23T02:27:58;6.80;;;3.33;;
18789;SDS011;9523;42.650;23.386;2024-03-23T02:30:25;5.87;;;3.30;;
18789;SDS011;9523;42.650;23.386;2024-03-23T02:32:52;5.30;;;2.87;;
18789;SDS011;9523;42.650;23.386;2024-03-23T02:35:19;9.20;;;3.30;;
18789;SDS011;9523;42.650;23.386;2024-03-23T02:37:46;6.73;;;3.00;;
18789;SDS011;9523;42.650;23.386;2024-03-23T02:40:15;5.23;;;2.77;;
18789;SDS011;9523;42.650;23.386;2024-03-23T02:42:41;14.00;;;3.23;;
18789;SDS011;9523;42.650;23.386;2024-03-23T02:45:08;4.50;;;3.50;;
18789;SDS011;9523;42.650;23.386;2024-03-23T02:47:34;5.83;;;2.80;;
18789;SDS011;9523;42.650;23.386;2024-03-23T02:50:01;6.67;;;3.17;;
18789;SDS011;9523;42.650;23.386;2024-03-23T02:52:28;5.73;;;3.20;;
18789;SDS011;9523;42.650;23.386;2024-03-23T02:54:55;4.87;;;3.17;;
18789;SDS011;9523;42.650;23.386;2024-03-23T02:57:22;5.40;;;3.30;;
18789;SDS011;9523;42.650;23.386;2024-03-23T02:59:49;3.77;;;2.77;;
18789;SDS011;9523;42.650;23.386;2024-03-23T03:02:15;5.10;;;2.67;;
18789;SDS011;9523;42.650;23.386;2024-03-23T03:04:42;3.93;;;2.60;;
18789;SDS011;9523;42.650;23.386;2024-03-23T03:07:08;3.33;;;2.23;;
18789;SDS011;9523;42.650;23.386;2024-03-23T03:09:35;5.40;;;3.53;;
18789;SDS011;9523;42.650;23.386;2024-03-23T03:12:04;4.00;;;2.37;;
18789;SDS011;9523;42.650;23.386;2024-03-23T03:14:33;4.97;;;3.07;;
18789;SDS011;9523;42.650;23.386;2024-03-23T03:16:59;4.50;;;2.10;;
18789;SDS011;9523;42.650;23.386;2024-03-23T03:19:26;7.23;;;3.03;;
18789;SDS011;9523;42.650;23.386;2024-03-23T03:21:52;3.47;;;2.17;;
18789;SDS011;9523;42.650;23.386;2024-03-23T03:24:19;4.43;;;2.70;;
18789;SDS011;9523;42.650;23.386;2024-03-23T03:26:45;5.30;;;2.80;;
18789;SDS011;9523;42.650;23.386;2024-03-23T03:29:12;3.47;;;2.40;;
18789;SDS011;9523;42.650;23.386;2024-03-23T03:31:40;6.50;;;2.90;;
18789;SDS011;9523;42.650;23.386;2024-03-23T03:34:07;4.00;;;2.50;;
18789;SDS011;9523;42.650;23.386;2024-03-23T03:36:33;6.07;;;2.53;;
18789;SDS011;9523;42.650;23.386;2024-03-23T03:39:00;6.10;;;3.23;;
18789;SDS011;9523;42.650;23.386;2024-03-23T03:41:27;4.97;;;2.60;;
18789;SDS011;9523;42.650;23.386;2024-03-23T03:43:54;8.50;;;2.60;;
18789;SDS011;9523;42.650;23.386;2024-03-23T03:46:21;4.07;;;2.40;;
18789;SDS011;9523;42.650;23.386;2024-03-23T03:48:49;7.40;;;2.20;;
18789;SDS011;9523;42.650;23.386;2024-03-23T03:51:15;3.73;;;2.13;;
18789;SDS011;9523;42.650;23.386;2024-03-23T03:53:42;4.80;;;2.03;;
18789;SDS011;9523;42.650;23.386;2024-03-23T03:56:08;3.40;;;1.70;;
18789;SDS011;9523;42.650;23.386;2024-03-23T03:58:35;4.83;;;2.47;;
18789;SDS011;9523;42.650;23.386;2024-03-23T04:01:01;3.97;;;2.87;;
18789;SDS011;9523;42.650;23.386;2024-03-23T04:03:28;6.27;;;2.53;;
18789;SDS011;9523;42.650;23.386;2024-03-23T04:05:55;7.10;;;2.77;;
18789;SDS011;9523;42.650;23.386;2024-03-23T04:08:22;7.60;;;2.77;;
18789;SDS011;9523;42.650;23.386;2024-03-23T04:10:49;3.23;;;1.83;;
18789;SDS011;9523;42.650;23.386;2024-03-23T04:13:16;4.17;;;2.53;;
18789;SDS011;9523;42.650;23.386;2024-03-23T04:15:42;4.80;;;2.87;;
18789;SDS011;9523;42.650;23.386;2024-03-23T04:18:09;5.67;;;2.63;;
18789;SDS011;9523;42.650;23.386;2024-03-23T04:20:35;7.47;;;3.50;;
18789;SDS011;9523;42.650;23.386;2024-03-23T04:23:03;5.43;;;2.80;;
18789;SDS011;9523;42.650;23.386;2024-03-23T04:25:29;4.57;;;2.73;;
18789;SDS011;9523;42.650;23.386;2024-03-23T04:27:59;5.27;;;2.60;;
18789;SDS011;9523;42.650;23.386;2024-03-23T04:30:25;4.97;;;2.23;;
18789;SDS011;9523;42.650;23.386;2024-03-23T04:32:54;5.03;;;3.00;;
18789;SDS011;9523;42.650;23.386;2024-03-23T04:35:20;5.10;;;2.47;;
18789;SDS011;9523;42.650;23.386;2024-03-23T04:37:50;4.73;;;2.50;;
18789;SDS011;9523;42.650;23.386;2024-03-23T04:40:19;4.63;;;2.53;;
18789;SDS011;9523;42.650;23.386;2024-03-23T04:42:46;6.93;;;3.17;;
18789;SDS011;9523;42.650;23.386;2024-03-23T04:45:13;3.60;;;2.30;;
18789;SDS011;9523;42.650;23.386;2024-03-23T04:47:41;5.07;;;2.60;;
18789;SDS011;9523;42.650;23.386;2024-03-23T04:50:08;7.23;;;3.00;;
18789;SDS011;9523;42.650;23.386;2024-03-23T04:52:36;6.07;;;3.07;;
18789;SDS011;9523;42.650;23.386;2024-03-23T04:55:04;5.33;;;2.40;;
18789;SDS011;9523;42.650;23.386;2024-03-23T04:57:33;4.63;;;2.90;;
18789;SDS011;9523;42.650;23.386;2024-03-23T04:59:59;4.00;;;2.53;;
18789;SDS011;9523;42.650;23.386;2024-03-23T05:02:26;6.63;;;2.47;;
18789;SDS011;9523;42.650;23.386;2024-03-23T05:04:53;4.80;;;3.23;;
18789;SDS011;9523;42.650;23.386;2024-03-23T05:07:21;7.37;;;3.30;;
18789;SDS011;9523;42.650;23.386;2024-03-23T05:09:48;6.57;;;2.93;;
18789;SDS011;9523;42.650;23.386;2024-03-23T05:12:14;5.60;;;2.87;;
18789;SDS011;9523;42.650;23.386;2024-03-23T05:14:42;5.63;;;2.77;;
18789;SDS011;9523;42.650;23.386;2024-03-23T05:17:08;7.00;;;3.37;;
18789;SDS011;9523;42.650;23.386;2024-03-23T05:19:35;6.17;;;3.60;;
18789;SDS011;9523;42.650;23.386;2024-03-23T05:22:01;5.37;;;2.90;;
18789;SDS011;9523;42.650;23.386;2024-03-23T05:24:28;6.23;;;3.67;;
18789;SDS011;9523;42.650;23.386;2024-03-23T05:26:54;6.83;;;3.07;;
18789;SDS011;9523;42.650;23.386;2024-03-23T05:29:24;6.93;;;3.37;;
18789;SDS011;9523;42.650;23.386;2024-03-23T05:31:51;5.70;;;2.83;;
18789;SDS011;9523;42.650;23.386;2024-03-23T05:34:20;4.67;;;3.03;;
18789;SDS011;9523;42.650;23.386;2024-03-23T05:36:46;2.47;;;1.90;;
18789;SDS011;9523;42.650;23.386;2024-03-23T05:39:14;4.20;;;2.77;;
18789;SDS011;9523;42.650;23.386;2024-03-23T05:41:41;5.20;;;3.40;;
18789;SDS011;9523;42.650;23.386;2024-03-23T05:44:08;5.70;;;2.80;;
18789;SDS011;9523;42.650;23.386;2024-03-23T05:46:36;3.00;;;2.63;;
18789;SDS011;9523;42.650;23.386;2024-03-23T05:49:04;10.93;;;3.53;;
18789;SDS011;9523;42.650;23.386;2024-03-23T05:51:30;7.60;;;3.73;;
18789;SDS011;9523;42.650;23.386;2024-03-23T05:53:57;4.17;;;2.77;;
18789;SDS011;9523;42.650;23.386;2024-03-23T05:56:23;6.57;;;2.73;;
18789;SDS011;9523;42.650;23.386;2024-03-23T05:58:51;5.23;;;3.17;;
18789;SDS011;9523;42.650;23.386;2024-03-23T06:01:17;7.63;;;3.27;;
18789;SDS011;9523;42.650;23.386;2024-03-23T06:03:44;4.60;;;2.90;;
18789;SDS011;9523;42.650;23.386;2024-03-23T06:06:12;6.40;;;3.53;;
18789;SDS011;9523;42.650;23.386;2024-03-23T06:08:39;8.07;;;3.30;;
18789;SDS011;9523;42.650;23.386;2024-03-23T06:11:05;3.50;;;2.30;;
18789;SDS011;9523;42.650;23.386;2024-03-23T06:13:32;4.90;;;2.90;;
18789;SDS011;9523;42.650;23.386;2024-03-23T06:15:59;5.33;;;3.27;;
18789;SDS011;9523;42.650;23.386;2024-03-23T06:18:26;6.37;;;2.90;;
18789;SDS011;9523;42.650;23.386;2024-03-23T06:20:53;5.90;;;2.60;;
18789;SDS011;9523;42.650;23.386;2024-03-23T06:23:21;5.33;;;2.93;;
18789;SDS011;9523;42.650;23.386;2024-03-23T06:25:47;5.63;;;3.03;;
18789;SDS011;9523;42.650;23.386;2024-03-23T06:28:14;5.23;;;2.90;;
18789;SDS011;9523;42.650;23.386;2024-03-23T06:30:40;6.23;;;2.77;;
18789;SDS011;9523;42.650;23.386;2024-03-23T06:33:07;5.73;;;2.80;;
18789;SDS011;9523;42.650;23.386;2024-03-23T06:35:33;5.53;;;3.23;;
18789;SDS011;9523;42.650;23.386;2024-03-23T06:38:00;5.90;;;3.00;;
18789;SDS011;9523;42.650;23.386;2024-03-23T06:40:28;6.50;;;3.50;;
18789;SDS011;9523;42.650;23.386;2024-03-23T06:42:55;10.37;;;4.70;;
18789;SDS011;9523;42.650;23.386;2024-03-23T06:45:21;9.20;;;4.80;;
18789;SDS011;9523;42.650;23.386;2024-03-23T06:47:49;9.40;;;4.30;;
18789;SDS011;9523;42.650;23.386;2024-03-23T06:50:15;8.80;;;5.23;;
18789;SDS011;9523;42.650;23.386;2024-03-23T06:52:42;10.37;;;4.63;;
18789;SDS011;9523;42.650;23.386;2024-03-23T06:55:08;12.60;;;5.63;;
18789;SDS011;9523;42.650;23.386;2024-03-23T06:57:37;10.73;;;5.37;;
18789;SDS011;9523;42.650;23.386;2024-03-23T07:00:03;10.23;;;5.23;;
18789;SDS011;9523;42.650;23.386;2024-03-23T07:02:35;9.73;;;5.00;;
18789;SDS011;9523;42.650;23.386;2024-03-23T07:05:01;9.57;;;5.60;;
18789;SDS011;9523;42.650;23.386;2024-03-23T07:07:28;10.20;;;4.90;;
18789;SDS011;9523;42.650;23.386;2024-03-23T07:09:55;11.73;;;5.47;;
18789;SDS011;9523;42.650;23.386;2024-03-23T07:12:22;9.43;;;5.73;;
18789;SDS011;9523;42.650;23.386;2024-03-23T07:14:50;9.60;;;4.90;;
18789;SDS011;9523;42.650;23.386;2024-03-23T07:17:17;8.80;;;4.80;;
18789;SDS011;9523;42.650;23.386;2024-03-23T07:19:43;11.73;;;5.40;;
18789;SDS011;9523;42.650;23.386;2024-03-23T07:22:10;11.87;;;4.90;;
18789;SDS011;9523;42.650;23.386;2024-03-23T07:24:36;10.13;;;5.20;;
18789;SDS011;9523;42.650;23.386;2024-03-23T07:27:04;7.47;;;4.70;;
18789;SDS011;9523;42.650;23.386;2024-03-23T07:29:31;9.20;;;5.13;;
18789;SDS011;9523;42.650;23.386;2024-03-23T07:31:59;13.80;;;5.30;;
18789;SDS011;9523;42.650;23.386;2024-03-23T07:34:25;10.87;;;5.43;;
18789;SDS011;9523;42.650;23.386;2024-03-23T07:36:55;11.33;;;5.07;;
18789;SDS011;9523;42.650;23.386;2024-03-23T07:39:21;12.23;;;5.80;;
18789;SDS011;9523;42.650;23.386;2024-03-23T07:41:48;10.70;;;5.47;;
18789;SDS011;9523;42.650;23.386;2024-03-23T07:44:14;9.23;;;5.10;;
18789;SDS011;9523;42.650;23.386;2024-03-23T07:46:41;10.37;;;5.03;;
18789;SDS011;9523;42.650;23.386;2024-03-23T07:49:09;10.60;;;5.27;;
18789;SDS011;9523;42.650;23.386;2024-03-23T07:51:36;23.20;;;11.27;;
18789;SDS011;9523;42.650;23.386;2024-03-23T07:54:04;13.50;;;7.23;;
18789;SDS011;9523;42.650;23.386;2024-03-23T07:56:32;9.67;;;5.40;;
18789;SDS011;9523;42.650;23.386;2024-03-23T07:58:58;10.07;;;5.13;;
18789;SDS011;9523;42.650;23.386;2024-03-23T08:01:25;11.20;;;5.53;;
18789;SDS011;9523;42.650;23.386;2024-03-23T08:03:51;10.67;;;5.87;;
18789;SDS011;9523;42.650;23.386;2024-03-23T08:06:21;11.20;;;5.87;;
18789;SDS011;9523;42.650;23.386;2024-03-23T08:08:48;12.67;;;6.10;;
18789;SDS011;9523;42.650;23.386;2024-03-23T08:11:24;14.27;;;5.17;;
18789;SDS011;9523;42.650;23.386;2024-03-23T08:13:50;10.67;;;5.37;;
18789;SDS011;9523;42.650;23.386;2024-03-23T08:16:17;13.60;;;5.87;;
18789;SDS011;9523;42.650;23.386;2024-03-23T08:18:43;10.63;;;5.73;;
18789;SDS011;9523;42.650;23.386;2024-03-23T08:21:11;10.20;;;5.80;;
18789;SDS011;9523;42.650;23.386;2024-03-23T08:23:38;13.90;;;6.03;;
18789;SDS011;9523;42.650;23.386;2024-03-23T08:26:06;12.33;;;7.20;;
18789;SDS011;9523;42.650;23.386;2024-03-23T08:28:32;10.87;;;6.50;;
18789;SDS011;9523;42.650;23.386;2024-03-23T08:31:00;11.97;;;5.40;;
18789;SDS011;9523;42.650;23.386;2024-03-23T08:33:27;13.53;;;6.03;;
18789;SDS011;9523;42.650;23.386;2024-03-23T08:35:55;12.07;;;6.07;;
18789;SDS011;9523;42.650;23.386;2024-03-23T08:38:22;13.30;;;6.10;;
18789;SDS011;9523;42.650;23.386;2024-03-23T08:40:57;13.30;;;6.23;;
18789;SDS011;9523;42.650;23.386;2024-03-23T08:43:25;15.90;;;7.83;;
18789;SDS011;9523;42.650;23.386;2024-03-23T08:45:52;8.00;;;5.53;;
18789;SDS011;9523;42.650;23.386;2024-03-23T08:48:19;12.40;;;5.77;;
18789;SDS011;9523;42.650;23.386;2024-03-23T08:50:45;10.33;;;5.50;;
18789;SDS011;9523;42.650;23.386;2024-03-23T08:53:13;14.33;;;6.03;;
18789;SDS011;9523;42.650;23.386;2024-03-23T08:55:40;16.70;;;8.33;;
18789;SDS011;9523;42.650;23.386;2024-03-23T08:58:09;14.17;;;6.70;;
18789;SDS011;9523;42.650;23.386;2024-03-23T09:00:35;11.33;;;6.37;;
18789;SDS011;9523;42.650;23.386;2024-03-23T09:03:02;9.23;;;5.83;;
18789;SDS011;9523;42.650;23.386;2024-03-23T09:05:29;9.80;;;6.67;;
18789;SDS011;9523;42.650;23.386;2024-03-23T09:08:01;11.50;;;6.47;;
18789;SDS011;9523;42.650;23.386;2024-03-23T09:10:27;11.37;;;6.30;;
18789;SDS011;9523;42.650;23.386;2024-03-23T09:12:54;10.70;;;5.50;;
18789;SDS011;9523;42.650;23.386;2024-03-23T09:15:21;11.40;;;6.03;;
18789;SDS011;9523;42.650;23.386;2024-03-23T09:17:48;10.47;;;5.70;;
18789;SDS011;9523;42.650;23.386;2024-03-23T09:20:14;10.90;;;5.63;;
18789;SDS011;9523;42.650;23.386;2024-03-23T09:22:41;9.20;;;5.20;;
18789;SDS011;9523;42.650;23.386;2024-03-23T09:25:09;10.43;;;6.00;;
18789;SDS011;9523;42.650;23.386;2024-03-23T09:27:36;8.07;;;5.23;;
18789;SDS011;9523;42.650;23.386;2024-03-23T09:30:02;8.85;;;5.45;;
18789;SDS011;9523;42.650;23.386;2024-03-23T09:32:31;9.68;;;5.88;;
18789;SDS011;9523;42.650;23.386;2024-03-23T09:34:57;6.57;;;4.75;;
18789;SDS011;9523;42.650;23.386;2024-03-23T09:37:24;9.63;;;5.35;;
18789;SDS011;9523;42.650;23.386;2024-03-23T09:39:50;8.98;;;4.75;;
18789;SDS011;9523;42.650;23.386;2024-03-23T09:42:17;10.80;;;5.65;;
18789;SDS011;9523;42.650;23.386;2024-03-23T09:44:43;8.00;;;4.93;;
18789;SDS011;9523;42.650;23.386;2024-03-23T09:47:11;7.35;;;4.70;;
18789;SDS011;9523;42.650;23.386;2024-03-23T09:49:39;7.63;;;4.68;;
18789;SDS011;9523;42.650;23.386;2024-03-23T09:52:06;8.52;;;4.50;;
18789;SDS011;9523;42.650;23.386;2024-03-23T09:54:33;8.90;;;4.53;;
18789;SDS011;9523;42.650;23.386;2024-03-23T09:57:00;9.75;;;4.60;;
18789;SDS011;9523;42.650;23.386;2024-03-23T09:59:26;5.97;;;3.88;;
18789;SDS011;9523;42.650;23.386;2024-03-23T10:01:53;6.50;;;3.83;;
18789;SDS011;9523;42.650;23.386;2024-03-23T10:07:11;6.20;;;3.65;;
18789;SDS011;9523;42.650;23.386;2024-03-23T10:09:37;5.85;;;3.75;;
18789;SDS011;9523;42.650;23.386;2024-03-23T10:12:11;4.55;;;3.63;;
18789;SDS011;9523;42.650;23.386;2024-03-23T10:14:39;7.07;;;4.07;;
18789;SDS011;9523;42.650;23.386;2024-03-23T10:17:13;7.45;;;4.40;;
18789;SDS011;9523;42.650;23.386;2024-03-23T10:19:42;8.48;;;4.55;;
18789;SDS011;9523;42.650;23.386;2024-03-23T10:22:09;7.63;;;4.07;;
18789;SDS011;9523;42.650;23.386;2024-03-23T10:24:38;7.00;;;3.90;;
18789;SDS011;9523;42.650;23.386;2024-03-23T10:27:05;6.28;;;4.07;;
18789;SDS011;9523;42.650;23.386;2024-03-23T10:29:31;8.90;;;4.57;;
18789;SDS011;9523;42.650;23.386;2024-03-23T10:32:07;9.57;;;4.70;;
18789;SDS011;9523;42.650;23.386;2024-03-23T10:34:34;8.65;;;4.25;;
18789;SDS011;9523;42.650;23.386;2024-03-23T10:37:03;5.10;;;3.97;;
18789;SDS011;9523;42.650;23.386;2024-03-23T10:39:31;6.63;;;4.47;;
18789;SDS011;9523;42.650;23.386;2024-03-23T10:42:00;6.80;;;4.18;;
18789;SDS011;9523;42.650;23.386;2024-03-23T10:44:28;7.97;;;4.05;;
18789;SDS011;9523;42.650;23.386;2024-03-23T10:46:56;6.18;;;4.00;;
18789;SDS011;9523;42.650;23.386;2024-03-23T10:49:25;6.90;;;4.82;;
18789;SDS011;9523;42.650;23.386;2024-03-23T10:51:55;8.48;;;5.10;;
18789;SDS011;9523;42.650;23.386;2024-03-23T10:54:23;8.13;;;5.05;;
18789;SDS011;9523;42.650;23.386;2024-03-23T10:56:53;6.93;;;4.80;;
18789;SDS011;9523;42.650;23.386;2024-03-23T10:59:25;10.25;;;5.30;;
18789;SDS011;9523;42.650;23.386;2024-03-23T11:01:55;9.95;;;6.30;;
18789;SDS011;9523;42.650;23.386;2024-03-23T11:04:31;16.35;;;9.30;;
18789;SDS011;9523;42.650;23.386;2024-03-23T11:07:04;16.10;;;8.18;;
18789;SDS011;9523;42.650;23.386;2024-03-23T11:09:58;8.82;;;5.25;;
18789;SDS011;9523;42.650;23.386;2024-03-23T11:12:28;10.20;;;5.68;;
18789;SDS011;9523;42.650;23.386;2024-03-23T11:15:00;6.95;;;5.10;;
18789;SDS011;9523;42.650;23.386;2024-03-23T11:17:31;10.50;;;6.72;;
18789;SDS011;9523;42.650;23.386;2024-03-23T11:19:59;18.15;;;11.38;;
18789;SDS011;9523;42.650;23.386;2024-03-23T11:22:38;17.58;;;9.10;;
18789;SDS011;9523;42.650;23.386;2024-03-23T11:25:13;11.50;;;7.35;;
18789;SDS011;9523;42.650;23.386;2024-03-23T11:27:41;13.77;;;5.80;;
18789;SDS011;9523;42.650;23.386;2024-03-23T11:30:14;7.63;;;5.63;;
18789;SDS011;9523;42.650;23.386;2024-03-23T11:32:43;8.10;;;4.93;;
18789;SDS011;9523;42.650;23.386;2024-03-23T11:35:10;7.32;;;5.32;;
18789;SDS011;9523;42.650;23.386;2024-03-23T11:38:01;6.70;;;4.68;;
18789;SDS011;9523;42.650;23.386;2024-03-23T11:40:30;8.60;;;5.90;;
18789;SDS011;9523;42.650;23.386;2024-03-23T11:42:58;13.13;;;7.15;;
18789;SDS011;9523;42.650;23.386;2024-03-23T11:45:25;8.48;;;6.03;;
18789;SDS011;9523;42.650;23.386;2024-03-23T11:48:02;17.10;;;8.93;;
18789;SDS011;9523;42.650;23.386;2024-03-23T11:50:29;9.10;;;5.60;;
18789;SDS011;9523;42.650;23.386;2024-03-23T11:53:13;12.75;;;7.53;;
18789;SDS011;9523;42.650;23.386;2024-03-23T11:55:46;7.47;;;5.00;;
18789;SDS011;9523;42.650;23.386;2024-03-23T11:58:14;7.10;;;4.63;;
18789;SDS011;9523;42.650;23.386;2024-03-23T12:00:48;6.25;;;4.55;;
18789;SDS011;9523;42.650;23.386;2024-03-23T12:03:17;8.80;;;4.60;;
18789;SDS011;9523;42.650;23.386;2024-03-23T12:05:47;6.85;;;4.53;;
18789;SDS011;9523;42.650;23.386;2024-03-23T12:08:19;7.93;;;5.55;;
18789;SDS011;9523;42.650;23.386;2024-03-23T12:10:49;7.88;;;4.93;;
18789;SDS011;9523;42.650;23.386;2024-03-23T12:13:18;8.73;;;5.10;;
18789;SDS011;9523;42.650;23.386;2024-03-23T12:15:45;7.97;;;4.72;;
18789;SDS011;9523;42.650;23.386;2024-03-23T12:18:13;7.85;;;4.72;;
18789;SDS011;9523;42.650;23.386;2024-03-23T12:20:39;6.90;;;4.90;;
18789;SDS011;9523;42.650;23.386;2024-03-23T12:23:07;6.00;;;4.53;;
18789;SDS011;9523;42.650;23.386;2024-03-23T12:25:35;9.07;;;4.90;;
18789;SDS011;9523;42.650;23.386;2024-03-23T12:28:06;7.05;;;4.72;;
18789;SDS011;9523;42.650;23.386;2024-03-23T12:30:32;8.13;;;4.65;;
18789;SDS011;9523;42.650;23.386;2024-03-23T12:33:00;9.20;;;4.63;;
18789;SDS011;9523;42.650;23.386;2024-03-23T12:35:26;5.57;;;4.13;;
18789;SDS011;9523;42.650;23.386;2024-03-23T12:37:53;6.88;;;4.93;;
18789;SDS011;9523;42.650;23.386;2024-03-23T12:40:20;7.05;;;4.45;;
18789;SDS011;9523;42.650;23.386;2024-03-23T12:42:47;7.22;;;4.55;;
18789;SDS011;9523;42.650;23.386;2024-03-23T12:45:14;7.03;;;4.72;;
18789;SDS011;9523;42.650;23.386;2024-03-23T12:47:42;7.53;;;4.78;;
18789;SDS011;9523;42.650;23.386;2024-03-23T12:50:08;7.75;;;4.50;;
18789;SDS011;9523;42.650;23.386;2024-03-23T12:52:36;7.50;;;4.32;;
18789;SDS011;9523;42.650;23.386;2024-03-23T12:55:02;5.88;;;3.97;;
18789;SDS011;9523;42.650;23.386;2024-03-23T12:57:30;6.43;;;4.28;;
18789;SDS011;9523;42.650;23.386;2024-03-23T12:59:57;7.15;;;4.22;;
18789;SDS011;9523;42.650;23.386;2024-03-23T13:02:26;5.45;;;3.78;;
18789;SDS011;9523;42.650;23.386;2024-03-23T13:04:52;5.10;;;3.28;;
18789;SDS011;9523;42.650;23.386;2024-03-23T13:07:20;5.22;;;3.45;;
18789;SDS011;9523;42.650;23.386;2024-03-23T13:09:47;5.65;;;3.40;;
18789;SDS011;9523;42.650;23.386;2024-03-23T13:12:16;7.03;;;3.17;;
18789;SDS011;9523;42.650;23.386;2024-03-23T13:14:43;6.28;;;3.00;;
18789;SDS011;9523;42.650;23.386;2024-03-23T13:17:10;4.88;;;3.13;;
18789;SDS011;9523;42.650;23.386;2024-03-23T13:19:42;4.05;;;2.53;;
18789;SDS011;9523;42.650;23.386;2024-03-23T13:22:09;2.65;;;2.17;;
18789;SDS011;9523;42.650;23.386;2024-03-23T13:24:36;4.00;;;2.33;;
18789;SDS011;9523;42.650;23.386;2024-03-23T13:27:06;4.05;;;2.20;;
18789;SDS011;9523;42.650;23.386;2024-03-23T13:29:33;3.13;;;1.92;;
18789;SDS011;9523;42.650;23.386;2024-03-23T13:32:03;3.35;;;2.13;;
18789;SDS011;9523;42.650;23.386;2024-03-23T13:34:30;1.70;;;1.52;;
18789;SDS011;9523;42.650;23.386;2024-03-23T13:36:59;2.45;;;1.90;;
18789;SDS011;9523;42.650;23.386;2024-03-23T13:39:26;4.10;;;2.00;;
18789;SDS011;9523;42.650;23.386;2024-03-23T13:41:53;3.80;;;2.13;;
18789;SDS011;9523;42.650;23.386;2024-03-23T13:44:20;2.40;;;1.90;;
18789;SDS011;9523;42.650;23.386;2024-03-23T13:46:47;3.72;;;1.90;;
18789;SDS011;9523;42.650;23.386;2024-03-23T13:49:18;3.58;;;1.83;;
18789;SDS011;9523;42.650;23.386;2024-03-23T13:51:53;2.42;;;1.75;;
18789;SDS011;9523;42.650;23.386;2024-03-23T13:54:21;2.35;;;1.80;;
18789;SDS011;9523;42.650;23.386;2024-03-23T13:56:49;2.65;;;1.85;;
18789;SDS011;9523;42.650;23.386;2024-03-23T13:59:15;3.00;;;1.65;;
18789;SDS011;9523;42.650;23.386;2024-03-23T14:01:42;3.60;;;1.52;;
18789;SDS011;9523;42.650;23.386;2024-03-23T14:04:08;2.50;;;1.88;;
18789;SDS011;9523;42.650;23.386;2024-03-23T14:06:36;3.85;;;2.45;;
18789;SDS011;9523;42.650;23.386;2024-03-23T14:09:02;6.93;;;2.67;;
18789;SDS011;9523;42.650;23.386;2024-03-23T14:11:31;7.15;;;3.00;;
18789;SDS011;9523;42.650;23.386;2024-03-23T14:13:57;3.33;;;2.15;;
18789;SDS011;9523;42.650;23.386;2024-03-23T14:16:24;3.38;;;1.92;;
18789;SDS011;9523;42.650;23.386;2024-03-23T14:18:50;4.35;;;1.95;;
18789;SDS011;9523;42.650;23.386;2024-03-23T14:21:17;3.10;;;1.90;;
18789;SDS011;9523;42.650;23.386;2024-03-23T14:23:44;3.30;;;1.60;;
18789;SDS011;9523;42.650;23.386;2024-03-23T14:26:11;2.80;;;1.83;;
18789;SDS011;9523;42.650;23.386;2024-03-23T14:28:38;2.58;;;1.33;;
18789;SDS011;9523;42.650;23.386;2024-03-23T14:31:06;4.53;;;2.17;;
18789;SDS011;9523;42.650;23.386;2024-03-23T14:33:35;3.53;;;1.90;;
18789;SDS011;9523;42.650;23.386;2024-03-23T14:36:03;0.57;;;0.55;;
18789;SDS011;9523;42.650;23.386;2024-03-23T14:38:29;0.93;;;0.73;;
18789;SDS011;9523;42.650;23.386;2024-03-23T14:40:57;1.15;;;0.95;;
18789;SDS011;9523;42.650;23.386;2024-03-23T14:43:24;1.63;;;1.00;;
18789;SDS011;9523;42.650;23.386;2024-03-23T14:46:08;1.27;;;0.80;;
18789;SDS011;9523;42.650;23.386;2024-03-23T14:48:35;1.10;;;0.98;;
18789;SDS011;9523;42.650;23.386;2024-03-23T14:51:03;1.52;;;0.90;;
18789;SDS011;9523;42.650;23.386;2024-03-23T14:53:30;1.75;;;0.98;;
18789;SDS011;9523;42.650;23.386;2024-03-23T14:55:59;1.20;;;0.73;;
18789;SDS011;9523;42.650;23.386;2024-03-23T14:58:26;1.02;;;0.80;;
18789;SDS011;9523;42.650;23.386;2024-03-23T15:00:59;1.77;;;0.90;;
18789;SDS011;9523;42.650;23.386;2024-03-23T15:03:27;1.40;;;1.08;;
18789;SDS011;9523;42.650;23.386;2024-03-23T15:05:54;1.33;;;0.80;;
18789;SDS011;9523;42.650;23.386;2024-03-23T15:08:21;1.00;;;0.90;;
18789;SDS011;9523;42.650;23.386;2024-03-23T15:10:49;1.42;;;1.10;;
18789;SDS011;9523;42.650;23.386;2024-03-23T15:13:15;2.42;;;1.02;;
18789;SDS011;9523;42.650;23.386;2024-03-23T15:15:43;4.65;;;2.10;;
18789;SDS011;9523;42.650;23.386;2024-03-23T15:18:10;2.60;;;1.02;;
18789;SDS011;9523;42.650;23.386;2024-03-23T15:20:39;1.73;;;1.13;;
18789;SDS011;9523;42.650;23.386;2024-03-23T15:23:05;1.00;;;0.90;;
18789;SDS011;9523;42.650;23.386;2024-03-23T15:25:33;2.17;;;1.00;;
18789;SDS011;9523;42.650;23.386;2024-03-23T15:28:00;1.35;;;0.80;;
18789;SDS011;9523;42.650;23.386;2024-03-23T15:30:29;3.40;;;1.20;;
18789;SDS011;9523;42.650;23.386;2024-03-23T15:32:55;1.38;;;0.95;;
18789;SDS011;9523;42.650;23.386;2024-03-23T15:35:22;1.30;;;1.02;;
18789;SDS011;9523;42.650;23.386;2024-03-23T15:37:50;1.02;;;0.93;;
18789;SDS011;9523;42.650;23.386;2024-03-23T15:40:17;1.08;;;0.88;;
18789;SDS011;9523;42.650;23.386;2024-03-23T15:42:44;1.27;;;1.00;;
18789;SDS011;9523;42.650;23.386;2024-03-23T15:45:11;1.50;;;1.00;;